Kurunegala, Sri Lanka

5:02 PM IST on October 23, 2014 (GMT +0530)
Bandaranaike International | Change Station
CLOSE
Current Station
Airport
Location: Katunayake,
Elevation: 26 ft
Nearby Weather Stations

Elev 26 ft 7.18 °N, 79.88 °E | Updated 22 minutes ago

Partly Cloudy
Partly Cloudy
82 °F
Feels Like 87 °F
N
7
Wind Variable Wind from WSW

Today
High -- | Low -- °F
--% Chance of Precip.
Yesterday
High -- | Low -- °F
Precip. -- in
5:55 AM 5:50 PM
Waning Crescent, 0% visible
Pressure 29.80 in
Visibility 6.2 miles
Clouds Few 1800 ft
Few 2000 ft
Heat Index 87 °F
Dew Point 72 °F
Humidity 70%
Rainfall 0.00 in
Snow Depth Not available.
UV 1 out of 12
Pollen Not available.
Air Quality Not available.
Flu Activity Not available.
METAR VCBI 231110Z 25006KT 9999 FEW018 FEW020CB 28/22 Q1009 NOSIG

More Conditions Fewer Conditions

Pressure 29.80 in
Visibility 6.2 miles
Clouds Few 1800 ft
Few 2000 ft
Heat Index 87 °F
Dew Point 72 °F
Humidity 70%
Rainfall 0.00 in
Snow Depth Not available.
UV 1 out of 12
Pollen Not available.
Air Quality Not available.
Flu Activity Not available.
METAR VCBI 231110Z 25006KT 9999 FEW018 FEW020CB 28/22 Q1009 NOSIG

More Conditions Fewer Conditions

10-Day Weather Forecast

Almanac

Astronomy

Oct. 23, 2014 Rise Set
Actual Time 5:55 AM IST 5:50 PM IST
Civil Twilight 5:34 AM IST 6:11 PM IST
Nautical Twilight 5:09 AM IST 6:36 PM IST
Astronomical Twilight 4:45 AM IST 7:00 PM IST
Moon 5:16 AM IST 5:30 PM IST
Length of Visible Light 12h 37m
Length of Day
11h 54m
Tomorrow will be 0m 22s shorter.
Waning Crescent, 0% of the Moon is Illuminated
Today
Waning Crescent
Oct 23
New
Oct 30
First Quarter
Nov 6
Full
Nov 14
Last Quarter

Yesterday's Extremes

Country Highs Country Lows

Community

WunderPhotos

Upload Photos

1,764,209 photos uploaded!

Nearby

Snow Depth

Not available.

Earthquake Activity

City Distance Mag. Time & Date
No recent earthquake activity has been reported nearby.
Minimum magnitude displayed is 2.5.

Coastal Water Temperatures

Place Temperature
No Stations Reporting

Nearby Weather Stations